sensor_id;sensor_type;location;lat;lon;timestamp;P1;durP1;ratioP1;P2;durP2;ratioP2
12469;SDS011;36499;46.484;13.832;2023-07-22T00:00:30;3.83;;;2.27;;
12469;SDS011;36499;46.484;13.832;2023-07-22T00:02:59;5.70;;;2.30;;
12469;SDS011;36499;46.484;13.832;2023-07-22T00:05:26;3.83;;;2.00;;
12469;SDS011;36499;46.484;13.832;2023-07-22T00:07:53;5.30;;;1.90;;
12469;SDS011;36499;46.484;13.832;2023-07-22T00:10:20;3.17;;;2.10;;
12469;SDS011;36499;46.484;13.832;2023-07-22T00:12:47;3.17;;;1.93;;
12469;SDS011;36499;46.484;13.832;2023-07-22T00:15:14;3.30;;;2.40;;
12469;SDS011;36499;46.484;13.832;2023-07-22T00:17:42;5.70;;;2.27;;
12469;SDS011;36499;46.484;13.832;2023-07-22T00:20:11;5.27;;;2.30;;
12469;SDS011;36499;46.484;13.832;2023-07-22T00:22:39;4.03;;;2.00;;
12469;SDS011;36499;46.484;13.832;2023-07-22T00:25:07;2.40;;;1.93;;
12469;SDS011;36499;46.484;13.832;2023-07-22T00:27:36;1.90;;;1.80;;
12469;SDS011;36499;46.484;13.832;2023-07-22T00:30:03;3.43;;;2.10;;
12469;SDS011;36499;46.484;13.832;2023-07-22T00:32:32;4.90;;;2.20;;
12469;SDS011;36499;46.484;13.832;2023-07-22T00:35:02;3.37;;;2.17;;
12469;SDS011;36499;46.484;13.832;2023-07-22T00:37:31;4.07;;;1.87;;
12469;SDS011;36499;46.484;13.832;2023-07-22T00:39:58;2.33;;;1.90;;
12469;SDS011;36499;46.484;13.832;2023-07-22T00:42:26;2.40;;;2.20;;
12469;SDS011;36499;46.484;13.832;2023-07-22T00:44:54;5.73;;;2.00;;
12469;SDS011;36499;46.484;13.832;2023-07-22T00:47:21;3.27;;;2.00;;
12469;SDS011;36499;46.484;13.832;2023-07-22T00:49:49;3.63;;;2.10;;
12469;SDS011;36499;46.484;13.832;2023-07-22T00:52:17;7.57;;;2.20;;
12469;SDS011;36499;46.484;13.832;2023-07-22T00:54:46;4.60;;;2.00;;
12469;SDS011;36499;46.484;13.832;2023-07-22T00:57:14;1.80;;;1.70;;
12469;SDS011;36499;46.484;13.832;2023-07-22T00:59:42;5.53;;;2.20;;
12469;SDS011;36499;46.484;13.832;2023-07-22T01:02:09;8.60;;;2.27;;
12469;SDS011;36499;46.484;13.832;2023-07-22T01:04:36;2.77;;;2.20;;
12469;SDS011;36499;46.484;13.832;2023-07-22T01:07:04;7.60;;;2.10;;
12469;SDS011;36499;46.484;13.832;2023-07-22T01:09:34;2.57;;;2.20;;
12469;SDS011;36499;46.484;13.832;2023-07-22T01:12:05;2.13;;;1.93;;
12469;SDS011;36499;46.484;13.832;2023-07-22T01:14:33;3.27;;;2.17;;
12469;SDS011;36499;46.484;13.832;2023-07-22T01:17:01;5.20;;;2.50;;
12469;SDS011;36499;46.484;13.832;2023-07-22T01:19:30;6.50;;;2.33;;
12469;SDS011;36499;46.484;13.832;2023-07-22T01:21:58;5.53;;;2.37;;
12469;SDS011;36499;46.484;13.832;2023-07-22T01:24:28;2.97;;;2.20;;
12469;SDS011;36499;46.484;13.832;2023-07-22T01:26:56;4.87;;;2.30;;
12469;SDS011;36499;46.484;13.832;2023-07-22T01:29:23;3.23;;;2.10;;
12469;SDS011;36499;46.484;13.832;2023-07-22T01:31:52;6.50;;;2.27;;
12469;SDS011;36499;46.484;13.832;2023-07-22T01:34:21;6.70;;;2.10;;
12469;SDS011;36499;46.484;13.832;2023-07-22T01:36:49;4.03;;;2.17;;
12469;SDS011;36499;46.484;13.832;2023-07-22T01:39:17;2.60;;;2.23;;
12469;SDS011;36499;46.484;13.832;2023-07-22T01:41:46;7.77;;;2.10;;
12469;SDS011;36499;46.484;13.832;2023-07-22T01:44:13;2.40;;;2.13;;
12469;SDS011;36499;46.484;13.832;2023-07-22T01:46:40;2.37;;;1.97;;
12469;SDS011;36499;46.484;13.832;2023-07-22T01:49:09;2.23;;;2.03;;
12469;SDS011;36499;46.484;13.832;2023-07-22T01:51:38;4.20;;;2.00;;
12469;SDS011;36499;46.484;13.832;2023-07-22T01:54:06;2.23;;;2.00;;
12469;SDS011;36499;46.484;13.832;2023-07-22T01:56:34;4.83;;;2.10;;
12469;SDS011;36499;46.484;13.832;2023-07-22T01:59:03;4.90;;;2.60;;
12469;SDS011;36499;46.484;13.832;2023-07-22T02:01:30;3.70;;;2.00;;
12469;SDS011;36499;46.484;13.832;2023-07-22T02:03:57;3.70;;;2.33;;
12469;SDS011;36499;46.484;13.832;2023-07-22T02:06:24;3.13;;;2.10;;
12469;SDS011;36499;46.484;13.832;2023-07-22T02:08:53;3.20;;;2.00;;
12469;SDS011;36499;46.484;13.832;2023-07-22T02:11:21;4.83;;;2.00;;
12469;SDS011;36499;46.484;13.832;2023-07-22T02:13:48;3.20;;;2.20;;
12469;SDS011;36499;46.484;13.832;2023-07-22T02:16:16;3.00;;;2.10;;
12469;SDS011;36499;46.484;13.832;2023-07-22T02:18:43;3.17;;;2.00;;
12469;SDS011;36499;46.484;13.832;2023-07-22T02:21:10;3.70;;;2.03;;
12469;SDS011;36499;46.484;13.832;2023-07-22T02:23:38;4.37;;;2.20;;
12469;SDS011;36499;46.484;13.832;2023-07-22T02:26:05;2.97;;;2.00;;
12469;SDS011;36499;46.484;13.832;2023-07-22T02:28:32;4.50;;;2.17;;
12469;SDS011;36499;46.484;13.832;2023-07-22T02:31:00;9.50;;;2.30;;
12469;SDS011;36499;46.484;13.832;2023-07-22T02:33:32;2.63;;;2.10;;
12469;SDS011;36499;46.484;13.832;2023-07-22T02:36:00;2.50;;;2.30;;
12469;SDS011;36499;46.484;13.832;2023-07-22T02:38:27;3.03;;;1.90;;
12469;SDS011;36499;46.484;13.832;2023-07-22T02:40:54;2.10;;;1.90;;
12469;SDS011;36499;46.484;13.832;2023-07-22T02:43:21;2.87;;;2.40;;
12469;SDS011;36499;46.484;13.832;2023-07-22T02:45:48;4.73;;;2.30;;
12469;SDS011;36499;46.484;13.832;2023-07-22T02:48:15;4.13;;;1.90;;
12469;SDS011;36499;46.484;13.832;2023-07-22T02:50:44;4.00;;;2.30;;
12469;SDS011;36499;46.484;13.832;2023-07-22T02:53:11;2.47;;;2.10;;
12469;SDS011;36499;46.484;13.832;2023-07-22T02:55:39;5.23;;;2.50;;
12469;SDS011;36499;46.484;13.832;2023-07-22T02:58:06;2.73;;;2.40;;
12469;SDS011;36499;46.484;13.832;2023-07-22T03:00:33;2.47;;;2.20;;
12469;SDS011;36499;46.484;13.832;2023-07-22T03:03:00;2.60;;;2.40;;
12469;SDS011;36499;46.484;13.832;2023-07-22T03:05:27;4.87;;;2.20;;
12469;SDS011;36499;46.484;13.832;2023-07-22T03:07:56;3.50;;;2.10;;
12469;SDS011;36499;46.484;13.832;2023-07-22T03:10:24;3.53;;;2.23;;
12469;SDS011;36499;46.484;13.832;2023-07-22T03:12:52;2.63;;;2.17;;
12469;SDS011;36499;46.484;13.832;2023-07-22T03:15:20;3.43;;;2.30;;
12469;SDS011;36499;46.484;13.832;2023-07-22T03:17:48;2.87;;;2.27;;
12469;SDS011;36499;46.484;13.832;2023-07-22T03:20:15;4.53;;;2.50;;
12469;SDS011;36499;46.484;13.832;2023-07-22T03:22:44;3.07;;;2.10;;
12469;SDS011;36499;46.484;13.832;2023-07-22T03:25:14;3.03;;;2.20;;
12469;SDS011;36499;46.484;13.832;2023-07-22T03:27:43;7.17;;;2.13;;
12469;SDS011;36499;46.484;13.832;2023-07-22T03:30:11;3.50;;;2.10;;
12469;SDS011;36499;46.484;13.832;2023-07-22T03:32:40;4.37;;;2.17;;
12469;SDS011;36499;46.484;13.832;2023-07-22T03:35:08;5.40;;;1.93;;
12469;SDS011;36499;46.484;13.832;2023-07-22T03:37:35;2.60;;;1.87;;
12469;SDS011;36499;46.484;13.832;2023-07-22T03:40:03;2.83;;;2.20;;
12469;SDS011;36499;46.484;13.832;2023-07-22T03:42:37;2.00;;;1.80;;
12469;SDS011;36499;46.484;13.832;2023-07-22T03:45:04;3.63;;;2.10;;
12469;SDS011;36499;46.484;13.832;2023-07-22T03:47:34;2.40;;;2.10;;
12469;SDS011;36499;46.484;13.832;2023-07-22T03:50:01;4.87;;;2.03;;
12469;SDS011;36499;46.484;13.832;2023-07-22T03:52:30;2.83;;;2.13;;
12469;SDS011;36499;46.484;13.832;2023-07-22T03:54:58;2.30;;;2.10;;
12469;SDS011;36499;46.484;13.832;2023-07-22T03:57:25;3.80;;;1.93;;
12469;SDS011;36499;46.484;13.832;2023-07-22T03:59:54;2.63;;;2.10;;
12469;SDS011;36499;46.484;13.832;2023-07-22T04:02:22;3.70;;;1.90;;
12469;SDS011;36499;46.484;13.832;2023-07-22T04:04:49;4.17;;;1.90;;
12469;SDS011;36499;46.484;13.832;2023-07-22T04:07:17;2.27;;;2.00;;
12469;SDS011;36499;46.484;13.832;2023-07-22T04:09:44;2.87;;;2.30;;
12469;SDS011;36499;46.484;13.832;2023-07-22T04:12:11;3.30;;;2.20;;
12469;SDS011;36499;46.484;13.832;2023-07-22T04:14:38;2.57;;;2.07;;
12469;SDS011;36499;46.484;13.832;2023-07-22T04:17:07;5.57;;;2.30;;
12469;SDS011;36499;46.484;13.832;2023-07-22T04:19:34;3.63;;;2.17;;
12469;SDS011;36499;46.484;13.832;2023-07-22T04:22:01;6.10;;;2.37;;
12469;SDS011;36499;46.484;13.832;2023-07-22T04:24:29;2.00;;;1.77;;
12469;SDS011;36499;46.484;13.832;2023-07-22T04:26:56;4.13;;;2.03;;
12469;SDS011;36499;46.484;13.832;2023-07-22T04:29:23;6.13;;;2.10;;
12469;SDS011;36499;46.484;13.832;2023-07-22T04:31:50;2.80;;;2.23;;
12469;SDS011;36499;46.484;13.832;2023-07-22T04:34:19;5.20;;;2.10;;
12469;SDS011;36499;46.484;13.832;2023-07-22T04:36:46;4.57;;;2.20;;
12469;SDS011;36499;46.484;13.832;2023-07-22T04:39:13;1.67;;;1.57;;
12469;SDS011;36499;46.484;13.832;2023-07-22T04:41:40;2.20;;;1.87;;
12469;SDS011;36499;46.484;13.832;2023-07-22T04:44:07;2.07;;;1.90;;
12469;SDS011;36499;46.484;13.832;2023-07-22T04:46:34;1.80;;;1.60;;
12469;SDS011;36499;46.484;13.832;2023-07-22T04:49:01;2.53;;;1.90;;
12469;SDS011;36499;46.484;13.832;2023-07-22T04:51:30;2.03;;;1.57;;
12469;SDS011;36499;46.484;13.832;2023-07-22T04:53:57;3.93;;;1.80;;
12469;SDS011;36499;46.484;13.832;2023-07-22T04:56:24;1.83;;;1.63;;
12469;SDS011;36499;46.484;13.832;2023-07-22T04:58:51;1.97;;;1.77;;
12469;SDS011;36499;46.484;13.832;2023-07-22T05:01:18;2.23;;;2.03;;
12469;SDS011;36499;46.484;13.832;2023-07-22T05:03:45;2.30;;;1.53;;
12469;SDS011;36499;46.484;13.832;2023-07-22T05:06:12;3.40;;;1.57;;
12469;SDS011;36499;46.484;13.832;2023-07-22T05:08:41;2.30;;;2.00;;
12469;SDS011;36499;46.484;13.832;2023-07-22T05:11:08;2.40;;;2.07;;
12469;SDS011;36499;46.484;13.832;2023-07-22T05:13:35;2.97;;;1.90;;
12469;SDS011;36499;46.484;13.832;2023-07-22T05:16:02;2.97;;;2.00;;
12469;SDS011;36499;46.484;13.832;2023-07-22T05:18:29;2.27;;;2.07;;
12469;SDS011;36499;46.484;13.832;2023-07-22T05:20:56;2.93;;;2.10;;
12469;SDS011;36499;46.484;13.832;2023-07-22T05:23:23;4.03;;;2.20;;
12469;SDS011;36499;46.484;13.832;2023-07-22T05:25:52;5.50;;;3.57;;
12469;SDS011;36499;46.484;13.832;2023-07-22T05:28:19;3.17;;;2.87;;
12469;SDS011;36499;46.484;13.832;2023-07-22T05:30:46;2.80;;;2.47;;
12469;SDS011;36499;46.484;13.832;2023-07-22T05:33:14;3.27;;;2.07;;
12469;SDS011;36499;46.484;13.832;2023-07-22T05:35:41;4.10;;;2.30;;
12469;SDS011;36499;46.484;13.832;2023-07-22T05:38:08;3.23;;;2.40;;
12469;SDS011;36499;46.484;13.832;2023-07-22T05:40:35;2.37;;;2.17;;
12469;SDS011;36499;46.484;13.832;2023-07-22T05:43:03;6.70;;;2.50;;
12469;SDS011;36499;46.484;13.832;2023-07-22T05:45:30;3.17;;;2.30;;
12469;SDS011;36499;46.484;13.832;2023-07-22T05:47:57;4.50;;;2.13;;
12469;SDS011;36499;46.484;13.832;2023-07-22T05:50:24;2.80;;;2.33;;
12469;SDS011;36499;46.484;13.832;2023-07-22T05:52:51;6.87;;;2.43;;
12469;SDS011;36499;46.484;13.832;2023-07-22T05:55:18;2.37;;;2.17;;
12469;SDS011;36499;46.484;13.832;2023-07-22T05:57:45;2.67;;;2.20;;
12469;SDS011;36499;46.484;13.832;2023-07-22T06:00:14;2.30;;;2.10;;
12469;SDS011;36499;46.484;13.832;2023-07-22T06:02:42;4.10;;;2.53;;
12469;SDS011;36499;46.484;13.832;2023-07-22T06:05:09;4.50;;;2.40;;
12469;SDS011;36499;46.484;13.832;2023-07-22T06:07:36;5.43;;;2.50;;
12469;SDS011;36499;46.484;13.832;2023-07-22T06:10:04;2.50;;;2.30;;
12469;SDS011;36499;46.484;13.832;2023-07-22T06:12:33;4.67;;;2.37;;
12469;SDS011;36499;46.484;13.832;2023-07-22T06:15:00;6.17;;;2.70;;
12469;SDS011;36499;46.484;13.832;2023-07-22T06:17:29;2.93;;;2.57;;
12469;SDS011;36499;46.484;13.832;2023-07-22T06:19:56;3.20;;;2.67;;
12469;SDS011;36499;46.484;13.832;2023-07-22T06:22:23;4.47;;;2.80;;
12469;SDS011;36499;46.484;13.832;2023-07-22T06:24:50;4.10;;;2.70;;
12469;SDS011;36499;46.484;13.832;2023-07-22T06:27:17;2.97;;;2.57;;
12469;SDS011;36499;46.484;13.832;2023-07-22T06:29:45;3.03;;;2.50;;
12469;SDS011;36499;46.484;13.832;2023-07-22T06:32:12;3.40;;;2.73;;
12469;SDS011;36499;46.484;13.832;2023-07-22T06:34:41;3.13;;;2.83;;
12469;SDS011;36499;46.484;13.832;2023-07-22T06:37:08;3.93;;;3.50;;
12469;SDS011;36499;46.484;13.832;2023-07-22T06:39:35;3.33;;;3.03;;
12469;SDS011;36499;46.484;13.832;2023-07-22T06:42:02;3.23;;;2.93;;
12469;SDS011;36499;46.484;13.832;2023-07-22T06:44:29;3.60;;;3.30;;
12469;SDS011;36499;46.484;13.832;2023-07-22T06:46:56;3.50;;;3.20;;
12469;SDS011;36499;46.484;13.832;2023-07-22T06:49:23;7.33;;;3.30;;
12469;SDS011;36499;46.484;13.832;2023-07-22T06:51:52;3.80;;;3.47;;
12469;SDS011;36499;46.484;13.832;2023-07-22T06:54:19;6.10;;;3.87;;
12469;SDS011;36499;46.484;13.832;2023-07-22T06:56:46;3.93;;;3.37;;
12469;SDS011;36499;46.484;13.832;2023-07-22T06:59:13;4.80;;;3.43;;
12469;SDS011;36499;46.484;13.832;2023-07-22T07:01:40;3.57;;;3.23;;
12469;SDS011;36499;46.484;13.832;2023-07-22T07:04:07;4.03;;;3.67;;
12469;SDS011;36499;46.484;13.832;2023-07-22T07:06:34;3.93;;;3.53;;
12469;SDS011;36499;46.484;13.832;2023-07-22T07:09:04;5.10;;;3.20;;
12469;SDS011;36499;46.484;13.832;2023-07-22T07:11:31;3.80;;;3.40;;
12469;SDS011;36499;46.484;13.832;2023-07-22T07:13:58;3.60;;;3.30;;
12469;SDS011;36499;46.484;13.832;2023-07-22T07:16:26;4.03;;;3.50;;
12469;SDS011;36499;46.484;13.832;2023-07-22T07:18:56;3.33;;;3.10;;
12469;SDS011;36499;46.484;13.832;2023-07-22T07:21:24;3.73;;;3.30;;
12469;SDS011;36499;46.484;13.832;2023-07-22T07:23:52;4.10;;;3.30;;
12469;SDS011;36499;46.484;13.832;2023-07-22T07:26:21;7.07;;;3.10;;
12469;SDS011;36499;46.484;13.832;2023-07-22T07:28:49;3.77;;;3.40;;
12469;SDS011;36499;46.484;13.832;2023-07-22T07:31:17;3.67;;;3.03;;
12469;SDS011;36499;46.484;13.832;2023-07-22T07:33:45;3.70;;;3.13;;
12469;SDS011;36499;46.484;13.832;2023-07-22T07:36:12;3.27;;;2.97;;
12469;SDS011;36499;46.484;13.832;2023-07-22T07:38:39;5.50;;;2.80;;
12469;SDS011;36499;46.484;13.832;2023-07-22T07:41:07;3.77;;;3.00;;
12469;SDS011;36499;46.484;13.832;2023-07-22T07:43:37;3.07;;;2.70;;
12469;SDS011;36499;46.484;13.832;2023-07-22T07:46:18;3.50;;;3.03;;
12469;SDS011;36499;46.484;13.832;2023-07-22T07:52:28;3.00;;;2.80;;
12469;SDS011;36499;46.484;13.832;2023-07-22T07:54:55;3.53;;;2.50;;
12469;SDS011;36499;46.484;13.832;2023-07-22T07:57:22;5.67;;;3.50;;
12469;SDS011;36499;46.484;13.832;2023-07-22T07:59:50;2.90;;;2.60;;
12469;SDS011;36499;46.484;13.832;2023-07-22T08:02:17;3.17;;;2.83;;
12469;SDS011;36499;46.484;13.832;2023-07-22T08:04:44;3.50;;;3.20;;
12469;SDS011;36499;46.484;13.832;2023-07-22T08:07:14;4.93;;;2.77;;
12469;SDS011;36499;46.484;13.832;2023-07-22T08:09:43;4.77;;;3.37;;
12469;SDS011;36499;46.484;13.832;2023-07-22T08:12:14;2.77;;;2.37;;
12469;SDS011;36499;46.484;13.832;2023-07-22T08:14:41;2.50;;;2.30;;
12469;SDS011;36499;46.484;13.832;2023-07-22T08:17:09;3.43;;;2.70;;
12469;SDS011;36499;46.484;13.832;2023-07-22T08:19:36;7.90;;;4.43;;
12469;SDS011;36499;46.484;13.832;2023-07-22T08:22:03;3.90;;;2.90;;
12469;SDS011;36499;46.484;13.832;2023-07-22T08:24:31;2.60;;;2.33;;
12469;SDS011;36499;46.484;13.832;2023-07-22T08:26:59;3.40;;;2.50;;
12469;SDS011;36499;46.484;13.832;2023-07-22T08:29:26;2.73;;;2.40;;
12469;SDS011;36499;46.484;13.832;2023-07-22T08:31:53;3.87;;;2.77;;
12469;SDS011;36499;46.484;13.832;2023-07-22T08:34:21;10.57;;;4.07;;
12469;SDS011;36499;46.484;13.832;2023-07-22T08:36:48;7.43;;;3.53;;
12469;SDS011;36499;46.484;13.832;2023-07-22T08:39:15;5.20;;;3.00;;
12469;SDS011;36499;46.484;13.832;2023-07-22T08:41:42;3.60;;;2.63;;
12469;SDS011;36499;46.484;13.832;2023-07-22T08:44:17;5.27;;;2.97;;
12469;SDS011;36499;46.484;13.832;2023-07-22T08:46:47;13.43;;;5.50;;
12469;SDS011;36499;46.484;13.832;2023-07-22T08:49:23;4.63;;;2.53;;
12469;SDS011;36499;46.484;13.832;2023-07-22T08:51:51;4.53;;;3.10;;
12469;SDS011;36499;46.484;13.832;2023-07-22T08:54:21;3.33;;;2.53;;
12469;SDS011;36499;46.484;13.832;2023-07-22T08:56:50;4.57;;;2.50;;
12469;SDS011;36499;46.484;13.832;2023-07-22T08:59:18;3.50;;;2.70;;
12469;SDS011;36499;46.484;13.832;2023-07-22T09:01:45;3.73;;;2.50;;
12469;SDS011;36499;46.484;13.832;2023-07-22T09:04:15;3.27;;;2.57;;
12469;SDS011;36499;46.484;13.832;2023-07-22T09:06:45;3.80;;;2.70;;
12469;SDS011;36499;46.484;13.832;2023-07-22T09:09:13;2.70;;;2.50;;
12469;SDS011;36499;46.484;13.832;2023-07-22T09:11:40;3.00;;;2.70;;
12469;SDS011;36499;46.484;13.832;2023-07-22T09:14:09;3.47;;;2.70;;
12469;SDS011;36499;46.484;13.832;2023-07-22T09:16:36;4.73;;;2.90;;
12469;SDS011;36499;46.484;13.832;2023-07-22T09:19:04;3.53;;;2.80;;
12469;SDS011;36499;46.484;13.832;2023-07-22T09:21:31;2.80;;;2.60;;
12469;SDS011;36499;46.484;13.832;2023-07-22T09:24:02;3.57;;;3.27;;
12469;SDS011;36499;46.484;13.832;2023-07-22T09:26:47;4.03;;;3.00;;
12469;SDS011;36499;46.484;13.832;2023-07-22T09:29:14;4.47;;;2.90;;
12469;SDS011;36499;46.484;13.832;2023-07-22T09:31:48;3.20;;;2.73;;
12469;SDS011;36499;46.484;13.832;2023-07-22T09:34:16;4.93;;;3.73;;
12469;SDS011;36499;46.484;13.832;2023-07-22T09:36:49;2.90;;;2.70;;
12469;SDS011;36499;46.484;13.832;2023-07-22T09:39:19;3.17;;;2.50;;
12469;SDS011;36499;46.484;13.832;2023-07-22T09:41:58;3.40;;;2.50;;
12469;SDS011;36499;46.484;13.832;2023-07-22T09:44:29;3.13;;;2.80;;
12469;SDS011;36499;46.484;13.832;2023-07-22T09:46:57;3.40;;;2.50;;
12469;SDS011;36499;46.484;13.832;2023-07-22T09:49:24;4.63;;;3.27;;
12469;SDS011;36499;46.484;13.832;2023-07-22T09:51:53;2.83;;;2.60;;
12469;SDS011;36499;46.484;13.832;2023-07-22T09:54:20;7.50;;;3.20;;
12469;SDS011;36499;46.484;13.832;2023-07-22T09:56:49;3.70;;;2.97;;
12469;SDS011;36499;46.484;13.832;2023-07-22T09:59:18;5.33;;;3.77;;
12469;SDS011;36499;46.484;13.832;2023-07-22T10:01:48;4.57;;;3.43;;
12469;SDS011;36499;46.484;13.832;2023-07-22T10:04:17;3.70;;;2.87;;
12469;SDS011;36499;46.484;13.832;2023-07-22T10:06:47;3.60;;;2.80;;
12469;SDS011;36499;46.484;13.832;2023-07-22T10:09:16;4.47;;;3.10;;
12469;SDS011;36499;46.484;13.832;2023-07-22T10:11:47;10.40;;;5.37;;
12469;SDS011;36499;46.484;13.832;2023-07-22T10:14:14;4.27;;;2.67;;
12469;SDS011;36499;46.484;13.832;2023-07-22T10:16:44;4.67;;;2.90;;
12469;SDS011;36499;46.484;13.832;2023-07-22T10:19:12;7.47;;;2.77;;
12469;SDS011;36499;46.484;13.832;2023-07-22T10:21:40;2.57;;;2.37;;
12469;SDS011;36499;46.484;13.832;2023-07-22T10:24:08;4.77;;;2.90;;
12469;SDS011;36499;46.484;13.832;2023-07-22T10:26:36;3.27;;;2.87;;
12469;SDS011;36499;46.484;13.832;2023-07-22T10:29:06;2.80;;;2.50;;
12469;SDS011;36499;46.484;13.832;2023-07-22T10:31:35;5.73;;;2.80;;
12469;SDS011;36499;46.484;13.832;2023-07-22T10:34:04;3.90;;;2.67;;
12469;SDS011;36499;46.484;13.832;2023-07-22T10:36:31;3.00;;;2.70;;
12469;SDS011;36499;46.484;13.832;2023-07-22T10:38:58;2.93;;;2.60;;
12469;SDS011;36499;46.484;13.832;2023-07-22T10:41:26;3.07;;;2.53;;
12469;SDS011;36499;46.484;13.832;2023-07-22T10:43:53;4.50;;;2.80;;
12469;SDS011;36499;46.484;13.832;2023-07-22T10:46:30;3.60;;;2.93;;
12469;SDS011;36499;46.484;13.832;2023-07-22T10:49:08;4.37;;;2.80;;
12469;SDS011;36499;46.484;13.832;2023-07-22T10:51:37;3.10;;;2.77;;
12469;SDS011;36499;46.484;13.832;2023-07-22T10:54:10;3.30;;;3.00;;
12469;SDS011;36499;46.484;13.832;2023-07-22T10:56:40;3.20;;;2.70;;
12469;SDS011;36499;46.484;13.832;2023-07-22T10:59:09;4.50;;;2.70;;
12469;SDS011;36499;46.484;13.832;2023-07-22T11:01:37;5.23;;;2.70;;
12469;SDS011;36499;46.484;13.832;2023-07-22T11:04:22;3.13;;;2.83;;
12469;SDS011;36499;46.484;13.832;2023-07-22T11:06:56;2.93;;;2.67;;
12469;SDS011;36499;46.484;13.832;2023-07-22T11:09:38;3.67;;;2.73;;
12469;SDS011;36499;46.484;13.832;2023-07-22T11:12:08;3.97;;;2.70;;
12469;SDS011;36499;46.484;13.832;2023-07-22T11:14:41;3.80;;;2.73;;
12469;SDS011;36499;46.484;13.832;2023-07-22T11:17:13;3.43;;;3.13;;
12469;SDS011;36499;46.484;13.832;2023-07-22T11:19:44;4.20;;;2.70;;
12469;SDS011;36499;46.484;13.832;2023-07-22T11:22:11;3.27;;;2.97;;
12469;SDS011;36499;46.484;13.832;2023-07-22T11:24:39;3.83;;;2.97;;
12469;SDS011;36499;46.484;13.832;2023-07-22T11:27:07;2.90;;;2.60;;
12469;SDS011;36499;46.484;13.832;2023-07-22T11:29:34;3.50;;;2.87;;
12469;SDS011;36499;46.484;13.832;2023-07-22T11:32:02;3.30;;;2.63;;
12469;SDS011;36499;46.484;13.832;2023-07-22T11:34:30;4.20;;;2.80;;
12469;SDS011;36499;46.484;13.832;2023-07-22T11:36:59;3.17;;;2.87;;
12469;SDS011;36499;46.484;13.832;2023-07-22T11:39:27;3.90;;;2.70;;
12469;SDS011;36499;46.484;13.832;2023-07-22T11:41:56;5.13;;;3.00;;
12469;SDS011;36499;46.484;13.832;2023-07-22T11:44:28;5.27;;;2.40;;
12469;SDS011;36499;46.484;13.832;2023-07-22T11:46:57;3.00;;;2.70;;
12469;SDS011;36499;46.484;13.832;2023-07-22T11:49:27;3.97;;;3.20;;
12469;SDS011;36499;46.484;13.832;2023-07-22T11:51:57;3.77;;;3.07;;
12469;SDS011;36499;46.484;13.832;2023-07-22T11:54:29;5.43;;;3.10;;
12469;SDS011;36499;46.484;13.832;2023-07-22T11:56:58;3.10;;;2.80;;
12469;SDS011;36499;46.484;13.832;2023-07-22T11:59:37;3.83;;;2.73;;
12469;SDS011;36499;46.484;13.832;2023-07-22T12:02:06;4.27;;;3.40;;
12469;SDS011;36499;46.484;13.832;2023-07-22T12:04:38;3.40;;;3.10;;
12469;SDS011;36499;46.484;13.832;2023-07-22T12:07:07;3.47;;;3.17;;
12469;SDS011;36499;46.484;13.832;2023-07-22T12:09:58;3.97;;;3.57;;
12469;SDS011;36499;46.484;13.832;2023-07-22T12:12:33;2.97;;;2.67;;
12469;SDS011;36499;46.484;13.832;2023-07-22T12:15:03;5.00;;;3.10;;
12469;SDS011;36499;46.484;13.832;2023-07-22T12:17:44;2.97;;;2.67;;
12469;SDS011;36499;46.484;13.832;2023-07-22T12:20:13;3.20;;;2.90;;
12469;SDS011;36499;46.484;13.832;2023-07-22T12:22:43;3.47;;;3.17;;
12469;SDS011;36499;46.484;13.832;2023-07-22T12:25:10;3.70;;;3.33;;
12469;SDS011;36499;46.484;13.832;2023-07-22T12:27:37;6.27;;;3.70;;
12469;SDS011;36499;46.484;13.832;2023-07-22T12:30:05;6.53;;;3.60;;
12469;SDS011;36499;46.484;13.832;2023-07-22T12:32:33;6.67;;;5.97;;
12469;SDS011;36499;46.484;13.832;2023-07-22T12:35:01;5.37;;;3.60;;
12469;SDS011;36499;46.484;13.832;2023-07-22T12:37:28;3.43;;;3.10;;
12469;SDS011;36499;46.484;13.832;2023-07-22T12:39:57;3.60;;;3.17;;
12469;SDS011;36499;46.484;13.832;2023-07-22T12:42:24;4.47;;;3.83;;
12469;SDS011;36499;46.484;13.832;2023-07-22T12:44:51;3.50;;;3.20;;
12469;SDS011;36499;46.484;13.832;2023-07-22T12:47:18;3.50;;;3.10;;
12469;SDS011;36499;46.484;13.832;2023-07-22T12:49:45;3.53;;;3.23;;
12469;SDS011;36499;46.484;13.832;2023-07-22T12:52:12;4.17;;;3.77;;
12469;SDS011;36499;46.484;13.832;2023-07-22T12:54:39;4.17;;;3.33;;
12469;SDS011;36499;46.484;13.832;2023-07-22T12:57:08;3.67;;;2.97;;
12469;SDS011;36499;46.484;13.832;2023-07-22T12:59:36;4.93;;;3.10;;
12469;SDS011;36499;46.484;13.832;2023-07-22T13:02:03;3.27;;;2.97;;
12469;SDS011;36499;46.484;13.832;2023-07-22T13:04:31;3.63;;;3.20;;
12469;SDS011;36499;46.484;13.832;2023-07-22T13:06:58;3.40;;;3.10;;
12469;SDS011;36499;46.484;13.832;2023-07-22T13:09:25;5.13;;;3.60;;
12469;SDS011;36499;46.484;13.832;2023-07-22T13:11:52;4.10;;;3.43;;
12469;SDS011;36499;46.484;13.832;2023-07-22T13:14:20;3.60;;;3.13;;
12469;SDS011;36499;46.484;13.832;2023-07-22T13:16:47;5.20;;;3.53;;
12469;SDS011;36499;46.484;13.832;2023-07-22T13:19:14;4.87;;;3.53;;
12469;SDS011;36499;46.484;13.832;2023-07-22T13:21:41;4.67;;;3.00;;
12469;SDS011;36499;46.484;13.832;2023-07-22T13:24:08;3.30;;;3.00;;
12469;SDS011;36499;46.484;13.832;2023-07-22T13:26:35;8.87;;;3.80;;
12469;SDS011;36499;46.484;13.832;2023-07-22T13:29:02;5.20;;;3.50;;
12469;SDS011;36499;46.484;13.832;2023-07-22T13:31:31;4.23;;;3.80;;
12469;SDS011;36499;46.484;13.832;2023-07-22T13:33:58;4.90;;;3.30;;
12469;SDS011;36499;46.484;13.832;2023-07-22T13:36:25;3.67;;;3.37;;
12469;SDS011;36499;46.484;13.832;2023-07-22T13:38:52;4.33;;;3.53;;
12469;SDS011;36499;46.484;13.832;2023-07-22T13:41:19;4.47;;;3.40;;
12469;SDS011;36499;46.484;13.832;2023-07-22T13:43:46;4.07;;;3.60;;
12469;SDS011;36499;46.484;13.832;2023-07-22T13:46:13;3.30;;;3.00;;
12469;SDS011;36499;46.484;13.832;2023-07-22T13:48:41;3.87;;;3.47;;
12469;SDS011;36499;46.484;13.832;2023-07-22T13:51:08;3.20;;;2.90;;
12469;SDS011;36499;46.484;13.832;2023-07-22T13:53:35;4.53;;;3.20;;
12469;SDS011;36499;46.484;13.832;2023-07-22T13:56:02;3.87;;;3.40;;
12469;SDS011;36499;46.484;13.832;2023-07-22T13:58:30;4.63;;;3.00;;
12469;SDS011;36499;46.484;13.832;2023-07-22T14:00:57;3.77;;;3.07;;
12469;SDS011;36499;46.484;13.832;2023-07-22T14:03:24;3.40;;;3.10;;
12469;SDS011;36499;46.484;13.832;2023-07-22T14:05:53;3.30;;;3.00;;
12469;SDS011;36499;46.484;13.832;2023-07-22T14:08:20;4.37;;;3.20;;
12469;SDS011;36499;46.484;13.832;2023-07-22T14:10:47;4.60;;;3.50;;
12469;SDS011;36499;46.484;13.832;2023-07-22T14:13:15;4.37;;;3.23;;
12469;SDS011;36499;46.484;13.832;2023-07-22T14:15:42;3.57;;;3.17;;
12469;SDS011;36499;46.484;13.832;2023-07-22T14:18:09;5.80;;;3.10;;
12469;SDS011;36499;46.484;13.832;2023-07-22T14:20:36;4.53;;;3.10;;
12469;SDS011;36499;46.484;13.832;2023-07-22T14:23:04;4.07;;;3.10;;
12469;SDS011;36499;46.484;13.832;2023-07-22T14:25:31;3.30;;;3.00;;
12469;SDS011;36499;46.484;13.832;2023-07-22T14:27:58;3.60;;;3.20;;
12469;SDS011;36499;46.484;13.832;2023-07-22T14:30:25;4.27;;;3.40;;
12469;SDS011;36499;46.484;13.832;2023-07-22T14:32:52;3.33;;;2.83;;
12469;SDS011;36499;46.484;13.832;2023-07-22T14:35:20;3.67;;;3.30;;
12469;SDS011;36499;46.484;13.832;2023-07-22T14:37:47;4.63;;;3.20;;
12469;SDS011;36499;46.484;13.832;2023-07-22T14:40:16;8.53;;;3.53;;
12469;SDS011;36499;46.484;13.832;2023-07-22T14:42:43;5.43;;;3.60;;